Time;durP1;ratioP1;P1;durP2;ratioP2;P2;SDS_P1;SDS_P2;PMS_P1;PMS_P2;Temp;Humidity;BMP_temperature;BMP_pressure;BME280_temperature;BME280_humidity;BME280_pressure;Samples;Min_cycle;Max_cycle;Signal;HPM_P1;HPM_P2
2023/05/15 00:01:18;;;;;;;4.20;3.23;;;;;;;14.78;74.30;94606.41;5130740;28;20698;-46
2023/05/15 00:03:45;;;;;;;3.63;3.33;;;;;;;14.80;74.33;94606.22;5128063;28;20201;-45
2023/05/15 00:06:11;;;;;;;3.40;3.00;;;;;;;14.78;74.34;94600.44;5130290;28;20256;-44
2023/05/15 00:08:38;;;;;;;3.80;3.50;;;;;;;14.76;74.56;94577.44;5129466;28;20192;-46
2023/05/15 00:11:06;;;;;;;4.10;3.53;;;;;;;14.77;74.60;94591.13;5129721;28;20180;-45
2023/05/15 00:13:33;;;;;;;3.10;2.90;;;;;;;14.77;74.55;94617.66;5109022;28;20212;-44
2023/05/15 00:16:00;;;;;;;3.90;3.43;;;;;;;14.77;74.50;94619.44;5109385;28;20201;-44
2023/05/15 00:18:27;;;;;;;3.43;3.13;;;;;;;14.77;74.62;94634.91;5126035;28;20188;-45
2023/05/15 00:20:54;;;;;;;3.20;2.90;;;;;;;14.76;74.57;94628.13;5129617;28;20207;-46
2023/05/15 00:23:20;;;;;;;4.40;3.27;;;;;;;14.75;74.73;94626.50;5129479;28;20228;-46
2023/05/15 00:25:47;;;;;;;3.27;3.03;;;;;;;14.73;74.81;94624.13;5129204;28;20220;-46
2023/05/15 00:28:15;;;;;;;4.07;3.37;;;;;;;14.21;74.75;94533.66;5129899;28;20196;-45
2023/05/15 00:30:42;;;;;;;4.47;3.60;;;;;;;14.71;74.79;94622.66;5128934;28;20192;-45
2023/05/15 00:33:09;;;;;;;4.00;3.63;;;;;;;14.68;74.87;94633.28;5129455;28;20188;-44
2023/05/15 00:35:36;;;;;;;4.17;3.20;;;;;;;14.67;74.86;94639.41;5129668;28;20192;-45
2023/05/15 00:38:03;;;;;;;3.57;3.27;;;;;;;14.66;74.88;94635.22;5130377;27;20548;-44
2023/05/15 00:40:31;;;;;;;4.67;3.00;;;;;;;14.64;74.99;94619.16;5132700;27;20188;-45
2023/05/15 00:42:59;;;;;;;3.73;3.33;;;;;;;14.51;74.81;94605.03;5134106;27;20229;-46
2023/05/15 00:45:29;;;;;;;3.67;3.30;;;;;;;14.62;74.84;94629.59;5135345;27;20192;-47
2023/05/15 00:47:57;;;;;;;3.63;3.33;;;;;;;14.57;75.02;94631.84;5135035;27;20245;-45
2023/05/15 00:50:25;;;;;;;3.83;3.53;;;;;;;14.59;75.10;94634.25;5132944;27;20202;-46
2023/05/15 00:52:53;;;;;;;4.27;3.50;;;;;;;14.57;75.09;94636.22;5133049;27;20184;-46
2023/05/15 00:55:19;;;;;;;4.23;3.30;;;;;;;14.50;74.96;94623.97;5132847;27;20203;-45
2023/05/15 00:57:48;;;;;;;4.07;3.67;;;;;;;14.53;75.18;94626.22;5132493;27;20192;-46
2023/05/15 01:00:17;;;;;;;4.37;3.97;;;;;;;14.51;75.17;94617.09;5132482;27;20645;-46
2023/05/15 01:02:46;;;;;;;6.57;3.63;;;;;;;14.50;75.10;94625.75;5132605;27;20215;-46
2023/05/15 01:05:13;;;;;;;3.90;3.50;;;;;;;14.48;75.37;94628.50;5132513;27;20611;-46
2023/05/15 01:07:49;;;;;;;4.83;3.07;;;;;;;14.47;75.56;94631.22;5132252;27;20291;-46
2023/05/15 01:10:17;;;;;;;4.30;3.90;;;;;;;14.44;75.36;94640.06;5132817;27;20192;-45
2023/05/15 01:12:47;;;;;;;4.10;3.70;;;;;;;14.38;75.49;94619.28;5132250;27;20215;-46
2023/05/15 01:15:14;;;;;;;3.73;3.43;;;;;;;14.42;75.41;94607.72;5131995;27;20188;-42
2023/05/15 01:17:41;;;;;;;4.37;3.40;;;;;;;14.41;75.30;94611.25;5132274;27;20188;-42
2023/05/15 01:20:12;;;;;;;3.90;3.60;;;;;;;14.40;75.40;94607.09;5131786;27;20683;-43
2023/05/15 01:22:47;;;;;;;4.30;3.60;;;;;;;14.38;75.45;94607.25;5131973;27;20219;-44
2023/05/15 01:25:53;;;;;;;4.57;3.67;;;;;;;14.35;75.46;94593.91;5131970;27;20300;-46
2023/05/15 01:28:29;;;;;;;5.07;3.97;;;;;;;14.35;75.57;94591.34;5132475;27;20183;-45
2023/05/15 01:31:00;;;;;;;4.13;3.33;;;;;;;14.34;75.55;94587.19;5131611;27;20244;-44
2023/05/15 01:33:34;;;;;;;4.47;3.63;;;;;;;14.30;75.56;94596.97;5132066;27;20631;-44
2023/05/15 01:36:08;;;;;;;5.33;3.77;;;;;;;14.32;75.57;94592.47;5131777;27;20180;-44
2023/05/15 01:38:38;;;;;;;3.97;3.67;;;;;;;14.30;75.65;94591.84;5132320;27;20246;-46
2023/05/15 01:41:13;;;;;;;3.70;3.40;;;;;;;14.29;75.52;94588.47;5133292;27;20275;-44
2023/05/15 01:43:45;;;;;;;3.63;3.33;;;;;;;14.24;75.81;94572.69;5132319;27;20656;-45
2023/05/15 01:46:14;;;;;;;3.97;3.67;;;;;;;14.25;75.65;94573.53;5131698;27;20271;-45
2023/05/15 01:48:43;;;;;;;4.40;3.73;;;;;;;14.00;75.52;94552.97;5131461;27;20196;-44
2023/05/15 01:51:13;;;;;;;4.97;4.20;;;;;;;14.23;75.66;94578.00;5131610;27;20242;-42
2023/05/15 01:53:41;;;;;;;4.80;3.50;;;;;;;14.21;75.63;94567.91;5131260;27;20672;-44
2023/05/15 01:56:09;;;;;;;3.90;3.60;;;;;;;14.14;75.65;94566.94;5131600;27;20276;-44
2023/05/15 01:58:37;;;;;;;4.73;3.97;;;;;;;14.18;75.49;94586.22;5131161;27;20185;-43
2023/05/15 02:01:06;;;;;;;4.47;3.77;;;;;;;14.15;75.90;94586.53;5131450;27;20192;-45
2023/05/15 02:03:34;;;;;;;4.40;3.87;;;;;;;14.17;75.85;94596.69;5132046;27;20188;-46
2023/05/15 02:06:02;;;;;;;3.97;3.57;;;;;;;14.15;75.87;94591.66;5131894;27;20184;-46
2023/05/15 02:08:30;;;;;;;6.83;4.10;;;;;;;14.12;75.72;94584.31;5131410;27;20181;-46
2023/05/15 02:10:59;;;;;;;4.17;3.80;;;;;;;14.15;75.77;94593.44;5131398;27;20241;-43
2023/05/15 02:13:27;;;;;;;4.50;3.57;;;;;;;14.13;75.82;94598.75;5131541;27;20188;-45
2023/05/15 02:15:54;;;;;;;4.10;3.70;;;;;;;14.13;75.92;94595.38;5130798;27;20245;-45
2023/05/15 02:18:22;;;;;;;4.00;3.60;;;;;;;14.13;75.93;94585.09;5131085;27;20193;-43
2023/05/15 02:20:49;;;;;;;4.13;3.73;;;;;;;14.12;75.72;94580.91;5131106;27;20642;-49
2023/05/15 02:23:16;;;;;;;4.03;3.63;;;;;;;14.08;75.84;94579.66;5131025;27;20291;-46
2023/05/15 02:25:49;;;;;;;4.87;4.33;;;;;;;14.11;75.92;94585.25;5131109;27;20589;-44
2023/05/15 02:28:24;;;;;;;3.97;3.53;;;;;;;14.10;76.04;94570.00;5130711;27;20240;-45
2023/05/15 02:30:58;;;;;;;6.57;3.90;;;;;;;14.10;75.86;94575.94;5130918;27;20274;-45
2023/05/15 02:33:35;;;;;;;5.13;4.07;;;;;;;14.10;75.78;94557.13;5130952;27;20187;-45
2023/05/15 02:36:06;;;;;;;4.10;3.80;;;;;;;14.10;75.89;94557.13;5130633;27;20188;-46
2023/05/15 02:38:39;;;;;;;4.47;4.07;;;;;;;14.10;75.95;94560.50;5130893;27;20618;-47
2023/05/15 02:41:07;;;;;;;5.00;4.20;;;;;;;14.11;75.81;94559.53;5131247;27;20194;-44
2023/05/15 02:43:36;;;;;;;4.40;4.00;;;;;;;14.12;75.88;94573.19;5131076;27;20192;-44
2023/05/15 02:46:04;;;;;;;4.47;4.07;;;;;;;14.12;75.82;94571.44;5130649;27;20697;-44
2023/05/15 02:48:33;;;;;;;4.10;3.70;;;;;;;14.14;75.77;94576.41;5130834;27;20192;-47
2023/05/15 02:51:00;;;;;;;5.33;4.17;;;;;;;14.11;75.67;94556.97;5130106;27;20188;-44
2023/05/15 02:53:28;;;;;;;4.30;3.90;;;;;;;14.16;75.95;94553.91;5130281;27;20278;-45
2023/05/15 02:55:55;;;;;;;6.40;4.60;;;;;;;14.13;76.04;94549.91;5130632;27;20584;-46
2023/05/15 02:58:22;;;;;;;5.80;4.53;;;;;;;14.17;75.79;94547.81;5130824;27;20196;-55
2023/05/15 03:00:48;;;;;;;4.57;3.50;;;;;;;14.17;75.82;94543.47;5129582;27;20204;-45
2023/05/15 03:03:15;;;;;;;5.30;4.67;;;;;;;14.19;75.86;94554.38;5130177;27;20188;-45
2023/05/15 03:05:43;;;;;;;5.37;4.50;;;;;;;14.18;75.76;94557.94;5130054;27;20231;-45
2023/05/15 03:08:10;;;;;;;4.33;3.93;;;;;;;14.19;75.88;94562.09;5130532;27;20180;-44
2023/05/15 03:10:37;;;;;;;5.33;4.83;;;;;;;14.20;76.02;94573.97;5129890;27;20733;-44
2023/05/15 03:13:04;;;;;;;5.13;4.50;;;;;;;14.20;76.06;94571.41;5129974;27;20634;-46
2023/05/15 03:15:30;;;;;;;4.63;4.23;;;;;;;14.14;75.83;94555.84;5130486;27;20176;-45
2023/05/15 03:17:57;;;;;;;5.00;4.17;;;;;;;14.24;75.87;94569.31;5129991;27;20191;-45
2023/05/15 03:20:25;;;;;;;5.13;4.63;;;;;;;14.26;75.84;94569.97;5130112;27;20184;-44
2023/05/15 03:22:53;;;;;;;5.40;4.40;;;;;;;14.18;75.93;94559.69;5129698;27;20203;-45
2023/05/15 03:25:21;;;;;;;5.00;4.50;;;;;;;14.28;75.83;94568.84;5130100;27;20232;-45
2023/05/15 03:27:47;;;;;;;5.40;4.47;;;;;;;14.26;75.78;94565.63;5130104;27;20219;-44
2023/05/15 03:30:14;;;;;;;5.23;4.73;;;;;;;14.09;75.79;94533.19;5130424;27;20198;-46
2023/05/15 03:32:41;;;;;;;6.27;5.13;;;;;;;14.30;75.82;94559.19;5129829;27;20337;-45
2023/05/15 03:35:09;;;;;;;4.77;4.37;;;;;;;14.34;75.64;94561.44;5130142;28;20203;-45
2023/05/15 03:37:35;;;;;;;5.30;4.70;;;;;;;14.35;75.97;94543.28;5129954;28;20184;-45
2023/05/15 03:40:06;;;;;;;4.70;4.10;;;;;;;14.37;75.72;94556.75;5130145;28;20625;-47
2023/05/15 03:42:33;;;;;;;4.87;4.47;;;;;;;14.36;75.62;94554.34;5129711;28;20188;-44
2023/05/15 03:45:00;;;;;;;5.67;4.83;;;;;;;14.41;75.59;94549.53;5131894;28;20598;-46
2023/05/15 03:47:27;;;;;;;5.33;4.50;;;;;;;14.43;75.71;94547.59;5130335;28;20188;-45
2023/05/15 03:49:53;;;;;;;4.77;4.37;;;;;;;14.44;75.73;94560.28;5130048;28;20176;-47
2023/05/15 03:52:20;;;;;;;5.57;5.07;;;;;;;14.40;75.63;94555.63;5129822;28;20177;-46
2023/05/15 03:54:47;;;;;;;5.47;4.57;;;;;;;14.47;75.75;94569.47;5130044;28;20184;-45
2023/05/15 03:57:15;;;;;;;6.53;4.80;;;;;;;14.50;75.60;94561.41;5130428;28;20187;-47
2023/05/15 03:59:42;;;;;;;6.50;4.70;;;;;;;14.49;75.45;94558.06;5130262;28;20184;-47
2023/05/15 04:02:09;;;;;;;5.10;4.60;;;;;;;14.54;75.30;94567.84;5130418;28;20192;-47
2023/05/15 04:04:37;;;;;;;5.17;4.67;;;;;;;14.54;75.46;94560.13;5129330;28;20711;-46
2023/05/15 04:07:04;;;;;;;4.80;4.40;;;;;;;14.60;75.36;94566.41;5130174;28;20184;-48
2023/05/15 04:09:31;;;;;;;6.13;5.27;;;;;;;14.59;75.39;94564.78;5130117;28;20191;-46
2023/05/15 04:11:58;;;;;;;5.50;5.00;;;;;;;14.62;75.34;94567.03;5130172;27;20208;-46
2023/05/15 04:14:26;;;;;;;5.77;5.17;;;;;;;14.44;75.55;94549.19;5134130;27;20214;-45
2023/05/15 04:16:53;;;;;;;5.93;4.97;;;;;;;14.63;75.42;94574.56;5133861;27;20209;-47
2023/05/15 04:19:20;;;;;;;8.00;5.20;;;;;;;14.65;75.27;94584.72;5133769;27;20187;-46
2023/05/15 04:21:56;;;;;;;6.30;5.07;;;;;;;14.54;75.44;94568.66;5132917;27;20177;-47
2023/05/15 04:24:23;;;;;;;5.77;5.17;;;;;;;14.67;75.22;94585.34;5132648;27;20223;-45
2023/05/15 04:26:50;;;;;;;5.50;4.93;;;;;;;14.67;75.36;94572.47;5133659;27;20180;-46
2023/05/15 04:29:16;;;;;;;6.03;5.43;;;;;;;14.72;75.32;94575.34;5134520;27;20192;-44
2023/05/15 04:31:45;;;;;;;6.53;5.10;;;;;;;14.72;75.22;94577.94;5135254;27;20195;-46
2023/05/15 04:34:12;;;;;;;5.67;5.17;;;;;;;14.77;75.26;94568.75;5134863;27;20223;-45
2023/05/15 04:36:38;;;;;;;5.27;4.77;;;;;;;14.80;75.13;94554.72;5132973;27;20649;-46
2023/05/15 04:39:07;;;;;;;6.03;5.20;;;;;;;14.83;75.12;94556.19;5133810;27;20188;-44
2023/05/15 04:41:34;;;;;;;6.03;5.00;;;;;;;14.86;75.00;94540.41;5133444;27;20290;-45
2023/05/15 04:44:01;;;;;;;5.63;5.10;;;;;;;14.90;75.05;94533.97;5133493;27;20188;-43
2023/05/15 04:46:28;;;;;;;5.80;5.00;;;;;;;14.93;74.91;94543.91;5132978;27;20212;-44
2023/05/15 04:48:56;;;;;;;8.30;5.03;;;;;;;14.97;74.87;94564.00;5133459;27;20271;-45
2023/05/15 04:51:23;;;;;;;5.43;4.80;;;;;;;15.01;74.82;94565.28;5132894;27;20653;-43
2023/05/15 04:53:49;;;;;;;5.77;5.00;;;;;;;15.04;74.78;94556.41;5133626;27;20188;-45
2023/05/15 04:56:16;;;;;;;5.10;4.60;;;;;;;15.11;76.01;94559.94;5133151;27;20196;-42
2023/05/15 04:58:43;;;;;;;6.60;3.30;;;;;;;15.44;90.15;94563.13;5132778;27;20188;-46
2023/05/15 05:01:10;;;;;;;12.03;3.80;;;;;;;15.82;92.11;94547.75;5133125;27;20602;-45
2023/05/15 05:03:37;;;;;;;13.07;3.80;;;;;;;16.23;91.48;94537.84;5132631;27;20603;-46
2023/05/15 05:06:05;;;;;;;5.10;3.07;;;;;;;16.58;90.24;94530.44;5133062;27;20707;-45
2023/05/15 05:08:32;;;;;;;9.17;3.10;;;;;;;16.88;88.81;94535.59;5133473;27;20603;-47
2023/05/15 05:10:59;;;;;;;5.83;4.07;;;;;;;17.05;87.35;94526.66;5133168;27;20191;-44
2023/05/15 05:13:26;;;;;;;11.50;4.67;;;;;;;17.22;85.35;94537.56;5132974;27;20672;-44
2023/05/15 05:15:52;;;;;;;4.47;3.77;;;;;;;17.22;83.82;94535.78;5133124;27;20188;-43
2023/05/15 05:18:19;;;;;;;7.63;4.50;;;;;;;17.18;82.81;94537.13;5132566;27;20191;-43
2023/05/15 05:20:47;;;;;;;6.50;3.83;;;;;;;17.15;82.10;94534.13;5133494;27;20541;-43
2023/05/15 05:23:15;;;;;;;7.67;4.43;;;;;;;17.11;81.26;94531.09;5132730;27;20203;-45
2023/05/15 05:25:42;;;;;;;6.07;3.97;;;;;;;16.65;80.57;94471.91;5132286;27;20227;-46
2023/05/15 05:28:09;;;;;;;6.37;4.10;;;;;;;17.07;80.20;94554.91;5133110;27;20188;-45
2023/05/15 05:30:36;;;;;;;5.03;3.33;;;;;;;17.06;79.79;94548.94;5132632;27;20187;-44
2023/05/15 05:33:03;;;;;;;7.10;4.83;;;;;;;17.06;79.28;94543.78;5132562;27;20192;-43
2023/05/15 05:35:30;;;;;;;9.00;3.93;;;;;;;17.08;78.79;94546.16;5113726;27;20196;-46
2023/05/15 05:37:56;;;;;;;6.93;4.00;;;;;;;17.12;78.39;94537.06;5132675;27;20180;-52
2023/05/15 05:40:25;;;;;;;5.80;4.77;;;;;;;17.03;77.77;94511.34;5126981;27;20280;-45
2023/05/15 05:42:51;;;;;;;5.53;4.70;;;;;;;17.18;77.43;94536.34;5127853;27;20769;-46
2023/05/15 05:45:18;;;;;;;5.87;4.53;;;;;;;17.33;76.78;94541.47;5128168;27;20216;-43
2023/05/15 05:47:45;;;;;;;6.30;4.57;;;;;;;17.40;76.31;94529.41;5131385;27;20196;-46
2023/05/15 05:50:12;;;;;;;5.33;4.57;;;;;;;17.55;75.54;94541.31;5131522;27;20676;-43
2023/05/15 05:52:39;;;;;;;5.50;4.33;;;;;;;17.71;75.20;94545.44;5130646;27;20188;-45
2023/05/15 05:55:06;;;;;;;5.37;4.70;;;;;;;17.92;74.62;94546.44;5130895;27;20207;-46
2023/05/15 05:57:35;;;;;;;5.43;4.17;;;;;;;18.21;73.63;94543.69;5130618;27;20192;-46
2023/05/15 06:00:03;;;;;;;4.97;4.37;;;;;;;18.43;73.05;94553.97;5131553;27;20569;-46
2023/05/15 06:02:31;;;;;;;5.87;4.40;;;;;;;18.41;72.85;94523.13;5128722;27;20231;-45
2023/05/15 06:04:58;;;;;;;6.00;4.20;;;;;;;18.60;72.50;94549.31;5130645;27;20197;-42
2023/05/15 06:07:25;;;;;;;4.37;3.80;;;;;;;18.63;72.60;94549.75;5132173;27;20207;-45
2023/05/15 06:09:52;;;;;;;5.57;4.47;;;;;;;18.66;72.28;94559.72;5131073;27;20250;-45
2023/05/15 06:12:19;;;;;;;5.03;4.33;;;;;;;18.67;72.23;94550.97;5130501;27;20207;-47
2023/05/15 06:14:47;;;;;;;6.80;4.90;;;;;;;18.66;72.10;94535.63;5130900;27;20271;-45
2023/05/15 06:17:14;;;;;;;6.77;4.47;;;;;;;18.60;72.12;94537.16;5129412;27;20205;-44
2023/05/15 06:19:41;;;;;;;6.57;4.43;;;;;;;18.59;72.04;94537.38;5130658;27;20192;-45
2023/05/15 06:22:07;;;;;;;4.87;4.30;;;;;;;18.63;71.84;94543.75;5130552;27;20195;-45
2023/05/15 06:24:34;;;;;;;5.10;4.60;;;;;;;18.64;71.52;94547.94;5130103;27;20216;-44
2023/05/15 06:27:01;;;;;;;4.87;4.33;;;;;;;18.70;71.27;94542.03;5129456;27;20770;-45
2023/05/15 06:29:28;;;;;;;6.10;4.90;;;;;;;18.75;71.06;94537.09;5129500;27;20188;-43
2023/05/15 06:31:56;;;;;;;10.23;5.20;;;;;;;18.94;70.46;94544.13;5130199;27;20253;-46
2023/05/15 06:34:23;;;;;;;5.70;4.83;;;;;;;19.22;69.77;94540.69;5129976;27;20188;-44
2023/05/15 06:36:51;;;;;;;5.10;4.57;;;;;;;19.62;68.67;94536.41;5130137;27;20196;-42
2023/05/15 06:39:18;;;;;;;6.20;4.53;;;;;;;20.08;68.11;94546.03;5129749;27;20211;-45
2023/05/15 06:41:44;;;;;;;6.23;4.43;;;;;;;20.49;67.56;94551.03;5129996;27;20641;-44
2023/05/15 06:44:11;;;;;;;5.47;4.70;;;;;;;20.94;67.17;94560.72;5129931;27;20202;-44
2023/05/15 06:46:38;;;;;;;9.03;5.30;;;;;;;21.28;66.65;94534.38;5131573;27;20223;-43
2023/05/15 06:49:06;;;;;;;5.10;4.47;;;;;;;21.70;66.30;94553.00;5130953;27;20200;-45
2023/05/15 06:51:33;;;;;;;4.68;4.25;;;;;;;21.96;65.74;94552.03;5130017;27;20185;-44
2023/05/15 06:54:00;;;;;;;4.35;3.95;;;;;;;22.25;65.32;94550.63;5129447;27;20196;-44
2023/05/15 06:56:27;;;;;;;5.70;4.05;;;;;;;22.67;64.80;94557.91;5129736;27;20633;-44
2023/05/15 06:58:53;;;;;;;4.43;4.03;;;;;;;23.08;64.10;94574.75;5129362;27;20196;-43
2023/05/15 07:01:20;;;;;;;4.53;4.13;;;;;;;23.43;63.48;94562.66;5130000;27;20205;-42
2023/05/15 07:03:47;;;;;;;6.85;4.28;;;;;;;23.78;62.78;94564.63;5129342;27;20196;-45
2023/05/15 07:06:15;;;;;;;5.65;4.28;;;;;;;24.09;62.36;94558.34;5129539;27;20231;-47
2023/05/15 07:08:42;;;;;;;5.25;3.92;;;;;;;24.33;61.57;94553.97;5129448;27;20310;-46
2023/05/15 07:11:09;;;;;;;4.35;3.95;;;;;;;24.50;61.54;94548.88;5129233;27;20196;-44
2023/05/15 07:13:36;;;;;;;3.95;3.58;;;;;;;24.60;60.89;94543.88;5129300;27;20692;-44
2023/05/15 07:16:03;;;;;;;5.18;4.50;;;;;;;24.67;60.74;94549.00;5129101;27;20200;-45
2023/05/15 07:18:30;;;;;;;4.75;4.25;;;;;;;24.72;60.72;94551.72;5129637;27;20709;-46
2023/05/15 07:20:58;;;;;;;4.70;4.30;;;;;;;24.70;60.35;94551.94;5128928;27;20211;-47
2023/05/15 07:23:27;;;;;;;6.13;4.60;;;;;;;24.64;60.44;94563.31;5129152;27;20200;-45
2023/05/15 07:25:54;;;;;;;5.00;4.50;;;;;;;24.56;60.28;94574.09;5128763;27;20224;-47
2023/05/15 07:28:21;;;;;;;5.55;4.10;;;;;;;24.43;60.28;94566.50;5128829;27;20207;-45
2023/05/15 07:30:48;;;;;;;5.63;5.00;;;;;;;24.31;60.18;94563.03;5128599;27;20199;-44
2023/05/15 07:33:15;;;;;;;6.57;4.60;;;;;;;24.23;60.09;94558.97;5129079;27;20207;-46
2023/05/15 07:35:42;;;;;;;4.88;4.38;;;;;;;24.17;59.78;94544.16;5129059;28;20609;-43
2023/05/15 07:38:09;;;;;;;4.80;4.40;;;;;;;24.21;59.82;94556.56;5128315;28;20196;-47
2023/05/15 07:40:37;;;;;;;4.53;4.13;;;;;;;24.27;59.36;94553.06;5128726;28;20561;-44
2023/05/15 07:43:04;;;;;;;6.38;4.95;;;;;;;24.26;59.14;94545.41;5129093;28;20220;-45
2023/05/15 07:45:31;;;;;;;6.03;5.18;;;;;;;24.29;58.98;94545.78;5128922;28;20196;-45
2023/05/15 07:47:57;;;;;;;5.75;5.15;;;;;;;24.26;59.06;94550.66;5131252;27;20200;-45
2023/05/15 07:50:25;;;;;;;5.25;4.75;;;;;;;24.17;59.22;94546.78;5133206;27;20275;-44
2023/05/15 07:52:51;;;;;;;5.78;5.28;;;;;;;23.61;59.01;94480.09;5132901;27;20241;-45
2023/05/15 07:55:18;;;;;;;7.05;5.50;;;;;;;23.90;58.97;94562.06;5132757;27;20191;-46
2023/05/15 07:57:47;;;;;;;6.63;5.22;;;;;;;23.76;59.32;94567.47;5132435;27;20192;-45
2023/05/15 08:00:15;;;;;;;6.55;5.45;;;;;;;23.60;59.37;94569.88;5133238;27;20617;-45
2023/05/15 08:02:44;;;;;;;6.03;5.47;;;;;;;23.40;59.38;94573.56;5132689;27;20192;-47
2023/05/15 08:05:11;;;;;;;7.60;5.50;;;;;;;23.24;59.32;94592.41;5133504;27;20196;-46
2023/05/15 08:07:38;;;;;;;6.60;5.90;;;;;;;23.09;59.59;94587.56;5133161;27;20204;-46
2023/05/15 08:10:08;;;;;;;7.40;6.60;;;;;;;22.97;59.82;94581.47;5132729;27;20192;-46
2023/05/15 08:12:34;;;;;;;6.22;5.35;;;;;;;22.90;60.02;94578.16;5132832;27;20192;-47
2023/05/15 08:15:03;;;;;;;6.75;6.10;;;;;;;22.83;59.64;94578.16;5133600;27;20196;-45
2023/05/15 08:17:30;;;;;;;8.48;6.10;;;;;;;22.75;59.62;94578.44;5132920;27;20840;-46
2023/05/15 08:19:56;;;;;;;6.72;6.13;;;;;;;22.66;59.86;94572.72;5129576;27;20192;-45
2023/05/15 08:22:23;;;;;;;7.82;7.03;;;;;;;22.61;59.87;94569.16;5132410;27;20196;-45
2023/05/15 08:24:50;;;;;;;7.43;5.93;;;;;;;22.57;59.95;94576.59;5132555;27;20220;-44
2023/05/15 08:27:17;;;;;;;8.65;6.70;;;;;;;22.55;59.88;94570.81;5132086;27;20610;-46
2023/05/15 08:29:44;;;;;;;6.97;6.30;;;;;;;22.53;59.57;94580.66;5132867;27;20564;-44
2023/05/15 08:32:12;;;;;;;7.65;6.95;;;;;;;22.49;59.74;94569.84;5132697;27;20184;-44
2023/05/15 08:34:39;;;;;;;7.78;6.93;;;;;;;22.47;59.75;94571.09;5132340;27;20567;-44
2023/05/15 08:37:06;;;;;;;7.88;7.07;;;;;;;22.47;59.54;94569.28;5132052;27;20660;-45
2023/05/15 08:39:33;;;;;;;7.35;6.65;;;;;;;22.50;59.18;94571.47;5131757;27;20192;-43
2023/05/15 08:42:10;;;;;;;7.10;6.45;;;;;;;22.57;59.39;94568.00;5132268;27;20198;-44
2023/05/15 08:44:38;;;;;;;9.15;7.15;;;;;;;22.64;59.00;94561.72;5130265;27;20192;-43
2023/05/15 08:47:06;;;;;;;9.88;7.53;;;;;;;22.72;58.63;94563.25;5134033;27;20699;-47
2023/05/15 08:49:44;;;;;;;8.25;7.43;;;;;;;22.79;58.56;94559.53;5132895;27;20188;-41
2023/05/15 08:52:11;;;;;;;8.30;7.35;;;;;;;22.89;58.40;94566.88;5132349;27;20206;-43
2023/05/15 08:54:39;;;;;;;10.07;7.50;;;;;;;22.93;58.33;94554.25;5125886;27;20600;-45
2023/05/15 08:57:07;;;;;;;7.93;7.13;;;;;;;22.89;58.22;94553.06;5128063;27;20188;-45
2023/05/15 08:59:33;;;;;;;8.82;7.95;;;;;;;22.88;58.20;94554.03;5124694;27;20196;-45
2023/05/15 09:02:00;;;;;;;11.38;7.32;;;;;;;22.83;58.46;94546.88;5129504;27;20261;-46
2023/05/15 09:04:27;;;;;;;9.18;7.55;;;;;;;22.77;58.27;94538.13;5126884;27;20291;-44
2023/05/15 09:06:56;;;;;;;8.73;7.82;;;;;;;22.60;58.50;94526.66;5128629;27;20208;-45
2023/05/15 09:09:24;;;;;;;12.82;7.40;;;;;;;22.48;58.44;94523.16;5128961;27;20192;-43
2023/05/15 09:11:52;;;;;;;8.40;7.53;;;;;;;22.63;58.46;94548.91;5129273;27;20200;-44
2023/05/15 09:14:19;;;;;;;9.93;7.00;;;;;;;22.56;58.84;94546.34;5128537;27;20203;-46
2023/05/15 09:16:48;;;;;;;8.95;7.60;;;;;;;22.50;58.51;94535.00;5129283;27;20191;-46
2023/05/15 09:19:15;;;;;;;12.18;8.55;;;;;;;22.45;58.68;94534.84;5128401;27;20303;-47
2023/05/15 09:21:42;;;;;;;7.78;6.97;;;;;;;22.33;58.83;94520.91;5129762;27;20188;-45
2023/05/15 09:24:23;;;;;;;8.75;7.75;;;;;;;22.29;58.89;94511.94;5131228;27;20195;-46
2023/05/15 09:27:02;;;;;;;8.50;7.40;;;;;;;22.37;58.53;94526.50;5131425;27;20334;-43
2023/05/15 09:29:30;;;;;;;8.02;7.22;;;;;;;22.38;58.91;94523.66;5129416;27;20354;-45
2023/05/15 09:31:56;;;;;;;8.40;7.60;;;;;;;22.39;58.67;94527.88;5131589;27;20188;-44
2023/05/15 09:34:30;;;;;;;9.55;7.05;;;;;;;22.39;58.35;94519.25;5131398;27;20199;-42
2023/05/15 09:36:57;;;;;;;10.55;8.10;;;;;;;22.45;58.53;94507.97;5131366;27;20279;-45
2023/05/15 09:39:25;;;;;;;10.68;8.02;;;;;;;22.44;58.14;94490.72;5131358;27;20257;-43
2023/05/15 09:41:52;;;;;;;9.43;8.10;;;;;;;22.59;57.95;94491.19;5131139;27;20276;-42
2023/05/15 09:44:24;;;;;;;8.30;7.18;;;;;;;22.67;58.01;94498.72;5130740;27;20191;-44
2023/05/15 09:46:51;;;;;;;9.10;7.57;;;;;;;22.75;57.70;94500.22;5130809;27;20219;-46
2023/05/15 09:49:18;;;;;;;7.80;7.10;;;;;;;22.84;57.60;94503.34;5130535;27;20180;-46
2023/05/15 09:51:47;;;;;;;8.43;7.63;;;;;;;22.89;57.51;94491.25;5131309;27;20207;-46
2023/05/15 09:54:18;;;;;;;9.00;8.02;;;;;;;22.88;57.44;94488.84;5131055;27;20188;-44
2023/05/15 09:56:47;;;;;;;9.77;7.68;;;;;;;22.97;57.27;94492.78;5131246;27;20188;-46
2023/05/15 09:59:15;;;;;;;9.70;7.72;;;;;;;23.03;57.52;94491.91;5130411;27;20252;-44
2023/05/15 10:01:46;;;;;;;7.95;7.25;;;;;;;23.08;57.26;94481.63;5130633;27;20187;-43
2023/05/15 10:04:14;;;;;;;8.30;7.50;;;;;;;23.15;57.05;94484.16;5131400;27;20210;-44
2023/05/15 10:06:43;;;;;;;8.25;7.55;;;;;;;23.16;56.84;94494.38;5130432;27;20216;-44
2023/05/15 10:09:11;;;;;;;8.38;7.03;;;;;;;23.17;57.14;94489.94;5130212;27;20196;-44
2023/05/15 10:11:39;;;;;;;8.68;7.68;;;;;;;23.16;57.20;94486.53;5129565;27;20193;-43
2023/05/15 10:14:09;;;;;;;10.10;8.32;;;;;;;22.98;56.92;94450.84;5130458;27;20276;-46
2023/05/15 10:16:38;;;;;;;8.98;8.07;;;;;;;23.12;56.74;94482.78;5130184;27;20192;-44
2023/05/15 10:19:06;;;;;;;8.18;7.35;;;;;;;23.12;56.97;94506.25;5130137;27;20196;-44
2023/05/15 10:21:34;;;;;;;8.43;7.57;;;;;;;23.07;57.02;94493.06;5130038;27;20188;-45
2023/05/15 10:24:03;;;;;;;8.07;6.95;;;;;;;23.11;56.79;94514.31;5129976;27;20200;-44
2023/05/15 10:26:36;;;;;;;10.20;6.97;;;;;;;23.12;56.88;94510.69;5127085;27;20696;-47
2023/05/15 10:29:10;;;;;;;9.98;7.72;;;;;;;23.07;57.08;94511.34;5128069;27;20188;-45
2023/05/15 10:31:37;;;;;;;8.25;7.40;;;;;;;23.04;56.98;94515.16;5129743;27;20181;-42
2023/05/15 10:34:05;;;;;;;8.98;7.47;;;;;;;23.00;57.15;94536.69;5130038;27;20200;-46
2023/05/15 10:36:32;;;;;;;7.63;6.90;;;;;;;22.96;56.90;94538.13;5130035;27;20200;-46
2023/05/15 10:39:00;;;;;;;9.70;7.60;;;;;;;22.92;57.27;94527.34;5130146;27;20188;-46
2023/05/15 10:41:29;;;;;;;9.32;8.15;;;;;;;22.85;57.35;94515.38;5129847;27;20274;-46
2023/05/15 10:43:59;;;;;;;8.73;7.93;;;;;;;22.85;57.32;94525.81;5129516;27;20196;-45
2023/05/15 10:46:30;;;;;;;7.95;7.15;;;;;;;22.87;57.40;94529.78;5129614;27;20305;-44
2023/05/15 10:48:58;;;;;;;16.52;7.85;;;;;;;22.84;57.40;94526.81;5111680;27;20599;-43
2023/05/15 10:51:26;;;;;;;8.48;7.60;;;;;;;22.77;57.29;94511.25;5130597;27;20194;-45
2023/05/15 10:53:55;;;;;;;10.70;7.78;;;;;;;22.84;57.50;94532.84;5112066;27;20336;-42
2023/05/15 10:56:26;;;;;;;8.35;7.55;;;;;;;22.78;57.27;94526.66;5129714;27;20184;-45
2023/05/15 10:58:55;;;;;;;8.32;7.53;;;;;;;22.74;57.69;94522.09;5129215;27;20195;-46
2023/05/15 11:01:26;;;;;;;8.45;7.53;;;;;;;22.65;57.78;94510.38;5129725;27;20192;-47
2023/05/15 11:04:05;;;;;;;8.23;7.38;;;;;;;22.54;58.13;94501.47;5129757;27;20272;-45
2023/05/15 11:06:32;;;;;;;8.90;7.55;;;;;;;22.43;58.26;94502.97;5129298;27;20230;-47
2023/05/15 11:09:32;;;;;;;9.68;8.68;;;;;;;22.32;58.38;94501.06;5129124;27;20385;-46
2023/05/15 11:12:00;;;;;;;8.73;7.40;;;;;;;22.21;58.40;94510.38;5129368;27;20184;-44
2023/05/15 11:14:28;;;;;;;8.85;7.38;;;;;;;22.16;58.71;94506.84;5129665;27;20200;-44
2023/05/15 11:16:59;;;;;;;12.52;7.78;;;;;;;22.10;58.48;94499.84;5128537;27;20195;-45
2023/05/15 11:19:48;;;;;;;9.38;7.78;;;;;;;22.07;58.67;94500.28;5126928;27;20285;-46
2023/05/15 11:22:19;;;;;;;8.48;6.97;;;;;;;22.09;58.69;94516.47;5125025;27;20196;-45
2023/05/15 11:24:52;;;;;;;7.90;7.10;;;;;;;22.08;58.64;94501.88;5128911;27;20231;-45
2023/05/15 11:27:21;;;;;;;7.97;7.18;;;;;;;22.10;58.52;94498.03;5129112;27;20224;-45
2023/05/15 11:30:07;;;;;;;7.95;7.10;;;;;;;22.02;58.41;94495.69;5128979;27;20195;-47
2023/05/15 11:32:54;;;;;;;8.80;7.45;;;;;;;22.18;58.49;94500.38;5129372;27;20205;-45
2023/05/15 11:35:28;;;;;;;10.43;7.72;;;;;;;22.26;58.39;94494.13;5129182;27;20199;-46
2023/05/15 11:37:56;;;;;;;11.57;7.57;;;;;;;22.35;57.87;94487.63;5129277;28;20265;-45
2023/05/15 11:40:25;;;;;;;10.10;7.53;;;;;;;22.45;57.94;94487.09;5128800;28;20199;-46